Time;durP1;ratioP1;P1;durP2;ratioP2;P2;SDS_P1;SDS_P2;PMS_P1;PMS_P2;Temp;Humidity;BMP_temperature;BMP_pressure;BME280_temperature;BME280_humidity;BME280_pressure;Samples;Min_cycle;Max_cycle;Signal;HPM_P1;HPM_P2
2022/03/17 00:01:33;;;;;;;8.05;7.65;;;;;;;-1.23;60.67;102370.72;5031257;28;20030;-61
2022/03/17 00:03:59;;;;;;;8.07;7.68;;;;;;;-1.37;62.22;102352.13;5031807;28;20385;-62
2022/03/17 00:06:24;;;;;;;17.98;16.35;;;;;;;-1.60;61.90;102339.91;5029337;28;20037;-63
2022/03/17 00:08:50;;;;;;;17.77;16.17;;;;;;;-1.51;61.14;102355.19;5024559;28;20018;-61
2022/03/17 00:11:16;;;;;;;15.35;14.02;;;;;;;-1.48;60.12;102355.91;5026661;28;20033;-62
2022/03/17 00:13:44;;;;;;;8.30;7.88;;;;;;;-1.68;60.87;102347.97;5029897;28;20472;-62
2022/03/17 00:16:10;;;;;;;7.72;7.32;;;;;;;-1.74;61.97;102367.22;5030804;28;20036;-62
2022/03/17 00:18:36;;;;;;;8.02;7.63;;;;;;;-1.80;61.79;102364.81;5031411;28;20033;-61
2022/03/17 00:21:03;;;;;;;8.25;7.82;;;;;;;-1.78;62.31;102363.00;5027691;28;20022;-62
2022/03/17 00:23:29;;;;;;;7.93;7.53;;;;;;;-1.84;62.57;102378.81;5012030;28;20029;-62
2022/03/17 00:25:54;;;;;;;7.85;7.45;;;;;;;-1.87;61.98;102372.88;5029781;28;20068;-61
2022/03/17 00:28:20;;;;;;;8.07;7.68;;;;;;;-1.96;61.42;102366.22;5030050;28;20049;-61
2022/03/17 00:30:46;;;;;;;8.20;7.80;;;;;;;-1.79;58.88;102391.69;5041996;28;20087;-63
2022/03/17 00:33:11;;;;;;;8.13;7.72;;;;;;;-1.78;58.25;102386.41;5051453;28;20040;-63
2022/03/17 00:35:38;;;;;;;8.00;7.60;;;;;;;-1.85;58.39;102376.25;5037462;28;20047;-62
2022/03/17 00:38:09;;;;;;;8.45;7.97;;;;;;;-1.91;58.17;102386.84;5031509;28;20026;-62
2022/03/17 00:40:37;;;;;;;8.07;7.68;;;;;;;-1.86;57.43;102398.81;5031743;28;20041;-62
2022/03/17 00:43:08;;;;;;;7.97;7.57;;;;;;;-1.99;58.37;102387.94;5031092;28;20056;-61
2022/03/17 00:45:34;;;;;;;8.07;7.68;;;;;;;-1.99;57.33;102400.97;5030159;28;20113;-61
2022/03/17 00:48:01;;;;;;;8.15;7.75;;;;;;;-2.14;58.02;102391.03;5031374;28;20108;-62
2022/03/17 00:50:27;;;;;;;7.78;7.38;;;;;;;-2.21;58.07;102392.13;5030279;28;20075;-62
2022/03/17 00:52:53;;;;;;;8.90;8.40;;;;;;;-2.14;57.68;102404.03;5031464;28;20037;-61
2022/03/17 00:55:19;;;;;;;8.18;7.78;;;;;;;-2.38;58.36;102400.44;5031885;28;20574;-62
2022/03/17 00:57:45;;;;;;;8.30;7.88;;;;;;;-2.28;57.92;102409.69;5013517;28;20427;-62
2022/03/17 01:00:14;;;;;;;8.10;7.70;;;;;;;-2.40;58.07;102401.38;5031317;28;20025;-62
2022/03/17 01:02:44;;;;;;;9.45;8.85;;;;;;;-2.39;57.58;102398.75;5029922;28;20043;-61
2022/03/17 01:05:10;;;;;;;8.00;7.60;;;;;;;-2.45;58.14;102398.06;5030916;28;20579;-61
2022/03/17 01:07:37;;;;;;;8.43;8.02;;;;;;;-2.53;58.20;102399.13;5029306;28;20123;-62
2022/03/17 01:10:04;;;;;;;8.50;8.10;;;;;;;-2.59;58.74;102394.13;5031706;28;20083;-61
2022/03/17 01:12:30;;;;;;;8.68;8.18;;;;;;;-2.61;57.75;102400.25;5030899;28;20029;-62
2022/03/17 01:14:56;;;;;;;8.48;8.07;;;;;;;-2.69;58.01;102397.88;5031382;28;20025;-62
2022/03/17 01:17:21;;;;;;;7.90;7.50;;;;;;;-2.81;59.13;102396.47;5031010;28;20499;-61
2022/03/17 01:19:47;;;;;;;8.23;7.82;;;;;;;-2.87;59.30;102401.00;5029724;28;20032;-62
2022/03/17 01:22:12;;;;;;;8.93;8.43;;;;;;;-2.97;59.79;102399.56;5030911;28;20026;-62
2022/03/17 01:24:38;;;;;;;9.27;8.77;;;;;;;-3.08;60.31;102400.72;5030661;28;20025;-61
2022/03/17 01:27:03;;;;;;;19.48;17.65;;;;;;;-3.14;60.33;102398.25;5030786;28;20044;-61
2022/03/17 01:29:29;;;;;;;18.15;16.45;;;;;;;-3.13;60.32;102401.72;5030722;28;20112;-61
2022/03/17 01:31:55;;;;;;;18.80;17.00;;;;;;;-3.34;60.88;102387.56;5039476;28;20064;-62
2022/03/17 01:34:20;;;;;;;9.63;9.02;;;;;;;-3.25;61.04;102407.22;5032475;28;20048;-62
2022/03/17 01:36:46;;;;;;;9.13;8.63;;;;;;;-3.28;61.62;102409.91;5037744;28;20029;-62
2022/03/17 01:39:11;;;;;;;9.15;8.65;;;;;;;-3.29;60.95;102403.00;5034131;28;20537;-62
2022/03/17 01:41:38;;;;;;;8.95;8.45;;;;;;;-3.24;60.68;102408.91;5034132;28;20507;-62
2022/03/17 01:44:04;;;;;;;8.70;8.20;;;;;;;-3.41;61.49;102412.81;5033784;28;20025;-62
2022/03/17 01:46:29;;;;;;;10.70;9.98;;;;;;;-3.38;61.16;102423.13;5027643;28;20044;-61
2022/03/17 01:48:55;;;;;;;8.70;8.20;;;;;;;-3.46;61.66;102426.78;5032626;28;20029;-63
2022/03/17 01:51:20;;;;;;;8.95;8.45;;;;;;;-3.49;62.41;102432.06;5032752;28;20068;-62
2022/03/17 01:53:46;;;;;;;9.05;8.55;;;;;;;-3.47;62.19;102441.50;5033944;28;20500;-61
2022/03/17 01:56:12;;;;;;;8.00;7.60;;;;;;;-3.43;61.64;102440.53;5018947;28;20037;-62
2022/03/17 01:58:38;;;;;;;8.52;8.07;;;;;;;-3.33;61.11;102438.56;5033951;28;20030;-62
2022/03/17 02:01:03;;;;;;;8.40;8.00;;;;;;;-3.24;60.75;102435.72;5034050;28;20026;-62
2022/03/17 02:03:29;;;;;;;7.90;7.50;;;;;;;-3.31;60.54;102431.56;5038409;28;20134;-62
2022/03/17 02:05:54;;;;;;;8.40;8.00;;;;;;;-3.20;60.50;102446.88;5042303;28;20026;-62
2022/03/17 02:08:20;;;;;;;8.70;8.23;;;;;;;-3.25;60.06;102441.81;5032920;28;20026;-63
2022/03/17 02:13:30;;;;;;;;;;;;;;;-3.37;60.68;102442.13;5034510;28;20033;-62
2022/03/17 02:15:56;;;;;;;8.85;8.35;;;;;;;-3.44;61.09;102443.19;5033932;28;19908;-61
2022/03/17 02:18:23;;;;;;;8.00;7.60;;;;;;;-3.48;61.74;102444.97;5033585;28;20079;-61
2022/03/17 02:20:49;;;;;;;8.43;8.02;;;;;;;-3.46;61.29;102447.53;5040366;28;20029;-62
2022/03/17 02:26:03;;;;;;;8.18;7.78;;;;;;;-3.48;61.92;102462.28;5032625;28;20064;-61
2022/03/17 02:28:31;;;;;;;8.63;8.18;;;;;;;-3.55;61.88;102458.13;5033358;28;20014;-62
2022/03/17 02:30:58;;;;;;;8.40;8.00;;;;;;;-3.61;62.44;102466.91;5045664;28;20049;-62
2022/03/17 02:33:24;;;;;;;8.40;8.00;;;;;;;-3.62;62.16;102471.25;5036508;28;20033;-62
2022/03/17 02:35:51;;;;;;;8.57;8.18;;;;;;;-3.65;62.66;102471.34;5052327;28;20037;-61
2022/03/17 02:38:18;;;;;;;8.55;8.13;;;;;;;-3.64;62.40;102464.41;5039324;28;20121;-63
2022/03/17 02:40:48;;;;;;;8.13;7.72;;;;;;;-3.59;61.91;102482.47;5031229;28;20564;-62
2022/03/17 02:43:14;;;;;;;8.07;7.68;;;;;;;-3.75;62.70;102468.97;5033665;28;20408;-61
2022/03/17 02:45:41;;;;;;;8.95;8.45;;;;;;;-3.75;63.32;102487.97;5033949;28;20057;-62
2022/03/17 02:48:07;;;;;;;8.98;8.48;;;;;;;-3.73;62.64;102494.00;5033515;28;20026;-63
2022/03/17 02:50:34;;;;;;;8.13;7.72;;;;;;;-3.86;62.79;102492.56;5033102;28;20027;-62
2022/03/17 02:53:05;;;;;;;8.32;7.93;;;;;;;-3.83;62.81;102491.63;5033289;28;20542;-61
2022/03/17 02:55:41;;;;;;;8.60;8.20;;;;;;;-3.92;63.12;102501.31;5035202;28;20517;-61
2022/03/17 02:58:08;;;;;;;8.48;8.07;;;;;;;-3.92;63.23;102497.88;5027423;28;20037;-62
2022/03/17 03:00:34;;;;;;;8.77;8.27;;;;;;;-3.97;63.63;102497.97;5032637;28;20030;-62
2022/03/17 03:03:00;;;;;;;8.02;7.63;;;;;;;-3.82;63.44;102506.28;5033093;28;20396;-62
2022/03/17 03:05:26;;;;;;;8.88;8.38;;;;;;;-3.93;63.41;102498.78;5032668;28;20034;-62
2022/03/17 03:07:53;;;;;;;8.18;7.78;;;;;;;-4.02;63.19;102492.06;5033259;28;20056;-63
2022/03/17 03:10:20;;;;;;;8.73;8.32;;;;;;;-4.00;63.84;102502.38;5032941;28;20033;-62
2022/03/17 03:12:45;;;;;;;9.13;8.63;;;;;;;-4.00;63.37;102492.00;5033195;28;20126;-61
2022/03/17 03:15:11;;;;;;;9.02;8.52;;;;;;;-4.01;63.28;102493.75;5029816;28;20508;-62
2022/03/17 03:17:37;;;;;;;8.20;7.80;;;;;;;-3.96;63.23;102501.44;5032764;28;20464;-63
2022/03/17 03:20:03;;;;;;;8.80;8.30;;;;;;;-4.05;63.61;102504.22;5032582;28;20488;-62
2022/03/17 03:22:29;;;;;;;8.45;8.05;;;;;;;-4.05;63.56;102512.84;5031648;28;20063;-62
2022/03/17 03:24:56;;;;;;;8.68;8.18;;;;;;;-4.15;64.54;102515.66;5032733;28;20045;-60
2022/03/17 03:27:27;;;;;;;8.80;8.30;;;;;;;-4.24;64.53;102519.31;5032296;28;20388;-62
2022/03/17 03:29:54;;;;;;;8.38;7.97;;;;;;;-4.31;64.67;102528.09;5032752;28;20036;-62
2022/03/17 03:32:19;;;;;;;9.48;8.98;;;;;;;-4.33;64.62;102530.72;5031564;28;20385;-62
2022/03/17 03:34:45;;;;;;;8.30;7.90;;;;;;;-4.40;65.42;102529.13;5044601;28;20036;-61
2022/03/17 03:37:25;;;;;;;9.18;8.68;;;;;;;-4.47;66.11;102530.97;5052485;28;20083;-61
2022/03/17 03:39:56;;;;;;;8.90;8.50;;;;;;;-4.42;65.91;102533.47;5039508;28;20045;-61
2022/03/17 03:42:23;;;;;;;10.32;9.73;;;;;;;-4.50;66.37;102540.53;5028271;28;20025;-61
2022/03/17 03:44:49;;;;;;;8.63;8.23;;;;;;;-4.59;66.65;102541.56;5032586;28;20029;-62
2022/03/17 03:47:15;;;;;;;8.60;8.20;;;;;;;-4.53;67.24;102544.03;5051353;28;20025;-61
2022/03/17 03:49:42;;;;;;;9.48;8.98;;;;;;;-4.40;66.03;102547.25;5035735;28;20060;-62
2022/03/17 03:52:13;;;;;;;9.07;8.63;;;;;;;-4.48;66.52;102544.81;5031345;28;20119;-62
2022/03/17 03:54:39;;;;;;;8.65;8.25;;;;;;;-4.47;66.84;102550.84;5031856;28;20137;-62
2022/03/17 03:57:06;;;;;;;9.25;8.75;;;;;;;-4.46;66.24;102549.97;5031602;28;20036;-62
2022/03/17 03:59:33;;;;;;;9.07;8.57;;;;;;;-4.41;65.88;102552.44;5031794;28;20029;-62
2022/03/17 04:02:05;;;;;;;9.13;8.63;;;;;;;-4.46;65.67;102562.91;5032182;28;20093;-61
2022/03/17 04:04:34;;;;;;;9.57;9.07;;;;;;;-4.41;65.39;102562.81;5013403;28;20053;-61
2022/03/17 04:07:03;;;;;;;9.52;9.00;;;;;;;-4.47;65.24;102561.22;5031102;28;20029;-61
2022/03/17 04:09:32;;;;;;;8.65;8.25;;;;;;;-4.36;65.82;102572.19;5031393;28;20029;-63
2022/03/17 04:11:58;;;;;;;8.75;8.35;;;;;;;-4.37;66.09;102569.66;5032128;28;20036;-61
2022/03/17 04:14:23;;;;;;;9.40;8.90;;;;;;;-4.47;66.90;102572.41;5031491;28;20411;-61
2022/03/17 04:16:49;;;;;;;8.38;7.97;;;;;;;-4.44;67.08;102576.69;5031441;28;20083;-61
2022/03/17 04:19:15;;;;;;;8.45;8.05;;;;;;;-4.52;66.86;102573.38;5036161;28;20025;-61
2022/03/17 04:21:42;;;;;;;9.60;9.00;;;;;;;-4.39;66.46;102579.19;5031914;28;20069;-61
2022/03/17 04:24:07;;;;;;;8.52;8.10;;;;;;;-4.38;66.76;102588.66;5030966;28;20036;-62
2022/03/17 04:26:33;;;;;;;9.45;8.85;;;;;;;-3.98;65.18;102586.16;5036618;28;20116;-62
2022/03/17 04:28:59;;;;;;;8.57;8.07;;;;;;;-3.67;64.25;102583.78;5047264;28;20021;-63
2022/03/17 04:31:24;;;;;;;8.55;8.05;;;;;;;-3.84;64.87;102602.28;5045713;28;20037;-63
2022/03/17 04:33:51;;;;;;;7.82;7.43;;;;;;;-3.40;64.28;102605.66;5048873;28;20033;-62
2022/03/17 04:36:17;;;;;;;8.10;7.65;;;;;;;-3.76;63.88;102595.19;5044778;28;20484;-62
2022/03/17 04:38:44;;;;;;;8.00;7.60;;;;;;;-3.53;62.88;102614.59;5040574;28;20025;-62
2022/03/17 04:41:11;;;;;;;7.95;7.55;;;;;;;-3.20;63.04;102616.44;5031445;28;20748;-63
2022/03/17 04:43:37;;;;;;;8.90;8.38;;;;;;;-3.13;62.40;102610.22;5034250;28;20111;-62
2022/03/17 04:46:04;;;;;;;7.82;7.40;;;;;;;-2.34;59.25;102610.00;5024900;28;20032;-62
2022/03/17 04:48:29;;;;;;;8.23;7.72;;;;;;;-3.09;61.21;102606.66;5029056;28;20454;-63
2022/03/17 04:50:55;;;;;;;7.10;6.70;;;;;;;-2.23;59.57;102602.75;5028146;28;20086;-62
2022/03/17 04:53:30;;;;;;;8.05;7.57;;;;;;;-1.75;58.91;102617.03;5031318;28;20362;-62
2022/03/17 04:56:08;;;;;;;7.80;7.40;;;;;;;-2.37;58.57;102627.41;5024010;28;20045;-63
2022/03/17 04:58:35;;;;;;;7.45;7.05;;;;;;;-1.57;57.34;102628.66;5023416;28;20026;-62
2022/03/17 05:01:02;;;;;;;8.27;7.78;;;;;;;-1.56;56.86;102628.59;5030794;28;20032;-62
2022/03/17 05:03:28;;;;;;;7.47;7.07;;;;;;;0.59;51.83;102637.84;5032863;28;20489;-62
2022/03/17 05:05:54;;;;;;;7.50;7.05;;;;;;;2.41;47.33;102638.91;5032119;28;20033;-62
2022/03/17 05:08:21;;;;;;;8.43;7.93;;;;;;;2.39;46.26;102646.81;5047683;28;20528;-61
2022/03/17 05:10:47;;;;;;;8.50;8.00;;;;;;;4.71;41.15;102650.84;5033038;28;20108;-62
2022/03/17 05:13:14;;;;;;;8.50;8.00;;;;;;;2.27;45.33;102650.00;5032925;28;20021;-61
2022/03/17 05:15:40;;;;;;;8.10;7.70;;;;;;;1.05;46.86;102660.44;5040011;28;20037;-61
2022/03/17 05:18:07;;;;;;;8.30;7.90;;;;;;;5.54;41.00;102668.06;5031396;28;20177;-60
2022/03/17 05:20:37;;;;;;;8.05;7.65;;;;;;;4.50;41.74;102667.81;5038910;28;20123;-60
2022/03/17 05:23:04;;;;;;;7.30;7.00;;;;;;;2.70;42.80;102672.47;5047087;28;20037;-61
2022/03/17 05:25:31;;;;;;;7.78;7.38;;;;;;;0.83;47.23;102676.94;5045860;28;20036;-62
2022/03/17 05:27:57;;;;;;;8.15;7.75;;;;;;;2.39;45.79;102670.41;5036152;28;20034;-61
2022/03/17 05:30:22;;;;;;;8.65;8.23;;;;;;;1.48;46.94;102670.00;5052277;28;20027;-62
2022/03/17 05:32:48;;;;;;;8.93;8.43;;;;;;;2.59;46.39;102673.91;5035938;28;20026;-62
2022/03/17 05:35:15;;;;;;;8.50;8.10;;;;;;;4.20;42.22;102682.56;5033727;28;20056;-62
2022/03/17 05:37:41;;;;;;;8.52;8.10;;;;;;;6.61;38.21;102680.03;5035359;28;20510;-61
2022/03/17 05:40:10;;;;;;;7.75;7.35;;;;;;;8.99;32.02;102694.75;5036713;28;20066;-61
2022/03/17 05:42:36;;;;;;;8.02;7.63;;;;;;;9.66;31.45;102696.88;5032677;28;20051;-62
2022/03/17 05:45:03;;;;;;;8.15;7.75;;;;;;;8.63;32.34;102687.66;5032735;28;20037;-62
2022/03/17 05:47:39;;;;;;;7.90;7.50;;;;;;;10.64;29.36;102691.94;5032998;28;20026;-63
2022/03/17 05:50:09;;;;;;;8.60;8.20;;;;;;;5.47;34.35;102694.81;5022605;28;20022;-63
2022/03/17 05:52:35;;;;;;;8.15;7.75;;;;;;;8.83;31.92;102696.84;5014283;28;20037;-62
2022/03/17 05:55:01;;;;;;;8.02;7.63;;;;;;;8.76;31.21;102695.56;5027627;28;20099;-63
2022/03/17 05:57:26;;;;;;;8.80;8.40;;;;;;;8.16;32.92;102694.47;5033713;28;20114;-61
2022/03/17 05:59:52;;;;;;;9.43;8.93;;;;;;;8.01;33.96;102701.66;5031671;28;20216;-63
2022/03/17 06:02:17;;;;;;;10.13;9.63;;;;;;;8.33;30.67;102706.50;5014320;28;20681;-62
2022/03/17 06:04:43;;;;;;;8.75;8.35;;;;;;;8.35;29.93;102701.97;5030343;28;20104;-64
2022/03/17 06:07:08;;;;;;;8.98;8.57;;;;;;;10.52;28.05;102712.38;5031371;28;20026;-63
2022/03/17 06:09:34;;;;;;;8.68;8.27;;;;;;;11.03;26.87;102711.81;5031034;28;20026;-63
2022/03/17 06:12:00;;;;;;;8.48;8.07;;;;;;;7.03;32.87;102719.63;5033017;28;20477;-63
2022/03/17 06:14:27;;;;;;;8.40;8.00;;;;;;;9.15;29.51;102723.63;5032434;28;20126;-63
2022/03/17 06:16:53;;;;;;;8.30;7.90;;;;;;;9.28;26.84;102718.28;5026352;28;20017;-63
2022/03/17 06:19:19;;;;;;;8.23;7.82;;;;;;;5.11;34.72;102722.28;5013460;28;20022;-63
2022/03/17 06:21:45;;;;;;;8.20;7.80;;;;;;;7.43;30.66;102731.09;5028874;28;20386;-63
2022/03/17 06:24:11;;;;;;;8.52;8.13;;;;;;;8.86;29.60;102729.19;5013472;28;20095;-63
2022/03/17 06:26:36;;;;;;;8.40;8.00;;;;;;;7.81;30.49;102736.50;5013305;28;20029;-63
2022/03/17 06:29:02;;;;;;;8.48;8.07;;;;;;;8.63;28.56;102732.63;5030363;28;20017;-63
2022/03/17 06:31:27;;;;;;;9.20;8.80;;;;;;;6.78;32.81;102723.81;5030625;28;20104;-62
2022/03/17 06:33:53;;;;;;;8.68;8.27;;;;;;;6.76;32.28;102735.41;5032990;28;20024;-62
2022/03/17 06:36:18;;;;;;;9.38;8.93;;;;;;;11.52;27.00;102740.53;5046533;28;20120;-63
2022/03/17 06:38:43;;;;;;;8.82;8.43;;;;;;;10.69;28.40;102740.22;5046938;28;20025;-63
2022/03/17 06:41:09;;;;;;;8.30;7.90;;;;;;;12.87;24.34;102740.53;5032521;28;20043;-63
2022/03/17 06:43:34;;;;;;;7.63;7.32;;;;;;;11.85;25.31;102747.56;5033282;28;20369;-63
2022/03/17 06:46:01;;;;;;;8.27;7.88;;;;;;;11.91;25.30;102758.66;5015964;28;20026;-64
2022/03/17 06:48:27;;;;;;;8.63;8.23;;;;;;;12.01;25.10;102765.72;5030479;28;20045;-64
2022/03/17 06:50:52;;;;;;;8.15;7.78;;;;;;;12.43;25.25;102761.22;5033151;28;20021;-63
2022/03/17 06:53:18;;;;;;;10.45;9.95;;;;;;;8.86;27.52;102753.03;5032522;28;20473;-64
2022/03/17 06:55:43;;;;;;;8.05;7.72;;;;;;;11.28;25.20;102764.66;5032312;28;20045;-63
2022/03/17 06:58:09;;;;;;;9.15;8.75;;;;;;;10.94;25.07;102752.38;5031635;28;20022;-63
2022/03/17 07:00:34;;;;;;;8.52;8.13;;;;;;;8.02;28.50;102769.41;5013112;28;20038;-63
2022/03/17 07:03:00;;;;;;;8.50;8.10;;;;;;;9.09;28.20;102754.03;5014672;28;20405;-63
2022/03/17 07:05:25;;;;;;;7.78;7.47;;;;;;;7.89;27.92;102767.69;5030924;28;20091;-63
2022/03/17 07:07:51;;;;;;;8.00;7.70;;;;;;;5.35;32.66;102762.16;5032290;28;20032;-62
2022/03/17 07:10:16;;;;;;;8.10;7.75;;;;;;;5.32;33.16;102759.72;5032464;28;20032;-62
2022/03/17 07:12:43;;;;;;;8.30;7.90;;;;;;;12.92;25.29;102770.25;5028499;28;20504;-62
2022/03/17 07:15:10;;;;;;;8.52;8.13;;;;;;;12.49;24.98;102775.84;5012471;28;20026;-62
2022/03/17 07:17:39;;;;;;;7.45;7.15;;;;;;;13.07;24.70;102765.38;5012368;28;20058;-62
2022/03/17 07:20:12;;;;;;;8.30;7.93;;;;;;;14.89;22.93;102781.41;5017575;28;20087;-62
2022/03/17 07:22:42;;;;;;;8.10;7.80;;;;;;;10.10;25.75;102780.16;5032316;28;20029;-62
2022/03/17 07:25:09;;;;;;;7.68;7.38;;;;;;;10.71;26.35;102780.75;5032026;28;20025;-62
2022/03/17 07:27:43;;;;;;;7.70;7.40;;;;;;;12.90;24.34;102774.88;5030406;28;20029;-64
2022/03/17 07:30:22;;;;;;;7.70;7.40;;;;;;;12.32;24.86;102773.75;5029574;28;20064;-63
2022/03/17 07:32:55;;;;;;;8.05;7.75;;;;;;;10.16;26.62;102774.38;5037157;28;20075;-63
2022/03/17 07:35:22;;;;;;;8.60;8.20;;;;;;;4.77;33.30;102767.13;5043902;28;20167;-63
2022/03/17 07:37:49;;;;;;;8.20;7.80;;;;;;;11.57;26.38;102777.38;5031682;28;20056;-64
2022/03/17 07:40:14;;;;;;;8.80;8.40;;;;;;;9.49;27.50;102768.84;5031895;28;20079;-63
2022/03/17 07:42:40;;;;;;;8.77;8.38;;;;;;;6.73;30.83;102775.16;5027712;28;20037;-64
2022/03/17 07:45:06;;;;;;;7.82;7.53;;;;;;;13.18;24.21;102769.78;5041525;28;20033;-64
2022/03/17 07:47:33;;;;;;;8.52;8.13;;;;;;;6.22;31.24;102767.69;5031631;28;20043;-65
2022/03/17 07:50:01;;;;;;;7.80;7.50;;;;;;;10.31;27.92;102767.94;5038732;28;20051;-65
2022/03/17 07:52:27;;;;;;;8.60;8.20;;;;;;;11.59;25.74;102770.94;5025670;28;20056;-65
2022/03/17 07:54:52;;;;;;;7.95;7.65;;;;;;;12.49;25.14;102772.34;5037114;28;20041;-64
2022/03/17 07:57:19;;;;;;;8.32;7.93;;;;;;;13.94;23.55;102765.50;5032686;28;20108;-66
2022/03/17 07:59:44;;;;;;;7.35;7.05;;;;;;;7.72;30.62;102763.53;5047678;28;20623;-66
2022/03/17 08:02:10;;;;;;;8.52;8.13;;;;;;;3.93;35.77;102766.25;5035469;28;20107;-63
2022/03/17 08:04:36;;;;;;;8.45;8.05;;;;;;;5.85;33.33;102761.06;5036000;28;20475;-63
2022/03/17 08:07:03;;;;;;;8.13;7.72;;;;;;;5.16;34.23;102761.50;5032438;28;20033;-65
2022/03/17 08:09:29;;;;;;;8.13;7.72;;;;;;;11.80;25.68;102754.19;5029750;28;20025;-66
2022/03/17 08:11:55;;;;;;;8.10;7.70;;;;;;;13.45;23.30;102761.16;5035348;28;20447;-66
2022/03/17 08:14:20;;;;;;;7.50;7.20;;;;;;;5.93;31.21;102758.00;5034989;28;20125;-65
2022/03/17 08:16:46;;;;;;;7.70;7.40;;;;;;;10.45;27.71;102757.09;5047557;28;20387;-65
2022/03/17 08:19:12;;;;;;;8.48;8.07;;;;;;;4.75;34.06;102742.69;5031515;28;20014;-67
2022/03/17 08:21:39;;;;;;;7.97;7.57;;;;;;;6.81;31.34;102754.41;5023789;28;20042;-64
2022/03/17 08:24:09;;;;;;;8.27;7.88;;;;;;;8.02;30.43;102752.72;5020814;28;20104;-66
2022/03/17 08:26:34;;;;;;;7.55;7.25;;;;;;;11.43;25.17;102756.38;5035363;28;20032;-67
2022/03/17 08:29:01;;;;;;;7.43;7.13;;;;;;;6.41;30.88;102753.41;5050919;28;20013;-64
2022/03/17 08:31:28;;;;;;;7.55;7.25;;;;;;;8.81;29.63;102743.72;5036971;28;20449;-64
2022/03/17 08:33:56;;;;;;;8.10;7.70;;;;;;;6.14;31.72;102733.03;5042627;28;20035;-65
2022/03/17 08:36:25;;;;;;;8.23;7.82;;;;;;;7.35;31.36;102755.38;5024957;28;20472;-65
2022/03/17 08:38:51;;;;;;;8.52;8.13;;;;;;;9.00;28.54;102736.16;5030485;28;20033;-66
2022/03/17 08:41:17;;;;;;;8.07;7.68;;;;;;;9.13;28.66;102730.84;5046274;28;20039;-65
2022/03/17 08:43:43;;;;;;;8.43;8.02;;;;;;;11.28;25.73;102738.06;5036499;28;20033;-66
2022/03/17 08:51:37;;;;;;;9.02;8.52;;;;;;;6.78;30.76;102726.47;5041285;28;20040;-66
2022/03/17 08:54:02;;;;;;;8.63;8.23;;;;;;;3.78;33.06;102741.59;5061893;28;20377;-64
2022/03/17 08:56:28;;;;;;;9.63;9.13;;;;;;;3.26;34.44;102745.00;5020071;28;20471;-64
2022/03/17 08:58:54;;;;;;;10.38;9.77;;;;;;;3.74;34.44;102740.03;5041504;28;20037;-66
2022/03/17 09:01:20;;;;;;;8.90;8.40;;;;;;;5.87;29.48;102730.19;5036063;28;20107;-69
2022/03/17 09:03:45;;;;;;;8.60;8.18;;;;;;;3.44;32.14;102748.50;5041846;28;20116;-68
2022/03/17 09:06:12;;;;;;;8.85;8.35;;;;;;;5.22;30.34;102753.28;5028766;28;20132;-69
2022/03/17 09:08:41;;;;;;;8.65;8.20;;;;;;;2.99;34.19;102751.53;5038813;28;20044;-68
2022/03/17 09:11:07;;;;;;;8.95;8.45;;;;;;;4.03;30.71;102742.06;5036572;28;20032;-68
2022/03/17 09:13:32;;;;;;;8.32;7.93;;;;;;;4.63;28.40;102755.59;5037629;28;20033;-68
2022/03/17 09:15:58;;;;;;;9.13;8.63;;;;;;;5.91;28.71;102744.94;5045128;28;20028;-68
2022/03/17 09:18:23;;;;;;;8.88;8.38;;;;;;;6.62;27.78;102737.13;5042311;28;20043;-68
2022/03/17 09:20:50;;;;;;;7.38;7.07;;;;;;;4.56;27.15;102732.34;5036856;28;20060;-68
2022/03/17 09:23:16;;;;;;;7.95;7.55;;;;;;;3.65;27.90;102719.50;5038444;28;20061;-67
2022/03/17 09:25:42;;;;;;;8.85;8.35;;;;;;;3.34;28.22;102739.38;5046996;28;20455;-68
2022/03/17 09:28:07;;;;;;;8.15;7.75;;;;;;;3.24;29.28;102744.22;5050502;28;20107;-68
2022/03/17 09:30:34;;;;;;;9.00;8.50;;;;;;;4.13;30.93;102756.44;5033192;28;20025;-67
2022/03/17 09:33:01;;;;;;;9.82;9.25;;;;;;;8.30;25.84;102735.81;5041621;28;20115;-67
2022/03/17 09:35:27;;;;;;;9.05;8.55;;;;;;;4.33;30.17;102738.78;5025503;28;21068;-67
2022/03/17 09:37:52;;;;;;;8.13;7.72;;;;;;;3.04;32.31;102745.16;5036524;28;20076;-67
2022/03/17 09:40:18;;;;;;;9.85;9.25;;;;;;;2.59;33.34;102742.03;5034702;28;20112;-68
2022/03/17 09:42:44;;;;;;;8.70;8.20;;;;;;;4.15;31.42;102744.06;5037588;28;20052;-67
2022/03/17 09:45:11;;;;;;;9.32;8.75;;;;;;;2.70;32.11;102752.84;5044359;28;20029;-69
2022/03/17 09:47:39;;;;;;;7.90;7.50;;;;;;;4.11;31.19;102762.69;5040526;28;20045;-68
2022/03/17 09:50:07;;;;;;;9.00;8.50;;;;;;;2.32;34.07;102752.78;5034887;28;21356;-65
2022/03/17 09:52:36;;;;;;;8.20;7.80;;;;;;;3.46;32.28;102746.66;5036210;28;20021;-65
2022/03/17 09:55:04;;;;;;;9.07;8.55;;;;;;;3.63;32.61;102743.22;5028261;28;20483;-67
2022/03/17 09:57:31;;;;;;;7.93;7.53;;;;;;;4.63;31.22;102739.81;5028971;28;20055;-68
2022/03/17 09:59:58;;;;;;;8.10;7.70;;;;;;;4.37;31.55;102749.06;5032688;28;20037;-68
2022/03/17 10:02:25;;;;;;;7.70;7.30;;;;;;;2.42;34.45;102755.84;5028505;28;20116;-68
2022/03/17 10:04:52;;;;;;;7.57;7.18;;;;;;;3.58;33.00;102755.69;5034920;28;20033;-68
2022/03/17 10:07:20;;;;;;;8.10;7.70;;;;;;;2.45;34.65;102763.59;5043564;28;20551;-68
2022/03/17 10:09:47;;;;;;;8.10;7.70;;;;;;;3.65;33.97;102762.34;5037039;28;20033;-67
2022/03/17 10:12:14;;;;;;;8.80;8.30;;;;;;;1.67;37.21;102741.56;5035532;28;20062;-67
2022/03/17 10:14:43;;;;;;;8.40;7.90;;;;;;;2.41;35.69;102748.91;5036440;28;20472;-67
2022/03/17 10:17:29;;;;;;;8.02;7.63;;;;;;;2.77;34.47;102726.28;5040762;28;20025;-66
2022/03/17 10:20:28;;;;;;;7.30;7.00;;;;;;;4.30;32.57;102731.06;5043239;28;20117;-66
2022/03/17 10:22:58;;;;;;;7.30;6.95;;;;;;;3.72;32.81;102732.25;5019897;28;20072;-65
2022/03/17 10:25:32;;;;;;;7.22;6.93;;;;;;;1.91;36.75;102729.25;5025937;28;20039;-66
2022/03/17 10:27:58;;;;;;;7.20;6.90;;;;;;;4.34;33.28;102719.47;5034760;28;20025;-62
2022/03/17 10:30:35;;;;;;;8.52;8.02;;;;;;;3.46;33.69;102720.44;5029984;28;20022;-63
2022/03/17 10:33:14;;;;;;;10.45;9.75;;;;;;;2.96;32.69;102720.22;5019348;28;20029;-64
2022/03/17 10:35:45;;;;;;;7.72;7.32;;;;;;;2.41;34.54;102717.47;5033431;28;20025;-66
2022/03/17 10:38:14;;;;;;;8.10;7.70;;;;;;;2.90;33.44;102721.34;5041475;28;20029;-63
2022/03/17 10:40:41;;;;;;;7.78;7.38;;;;;;;2.24;32.36;102727.84;5037153;28;20110;-63
2022/03/17 10:43:23;;;;;;;7.80;7.40;;;;;;;2.45;31.29;102721.66;5032818;28;20036;-64
2022/03/17 10:46:15;;;;;;;7.50;7.10;;;;;;;2.04;31.79;102718.22;5012412;28;20053;-64
2022/03/17 10:49:05;;;;;;;7.57;7.18;;;;;;;3.04;32.04;102699.72;5021952;28;20116;-63
2022/03/17 10:51:33;;;;;;;7.68;7.28;;;;;;;3.29;31.13;102718.59;5031792;28;20067;-64
2022/03/17 10:54:20;;;;;;;8.75;8.25;;;;;;;3.17;32.54;102690.34;5032323;28;20037;-63
2022/03/17 10:57:05;;;;;;;7.95;7.55;;;;;;;3.83;32.25;102701.06;5032027;28;20049;-62
2022/03/17 10:59:44;;;;;;;6.90;6.60;;;;;;;4.06;30.37;102699.06;5032454;28;20083;-64
2022/03/17 11:02:16;;;;;;;7.53;7.13;;;;;;;3.65;30.79;102688.84;5030972;28;20460;-63
2022/03/17 11:04:47;;;;;;;7.30;6.93;;;;;;;2.38;31.03;102701.91;5014443;28;20030;-63
2022/03/17 11:07:14;;;;;;;8.23;7.82;;;;;;;3.03;30.22;102693.63;5031597;28;20475;-63
2022/03/17 11:09:41;;;;;;;7.50;7.10;;;;;;;2.85;30.73;102696.25;5032434;28;20755;-63
2022/03/17 11:12:08;;;;;;;7.50;7.10;;;;;;;3.78;29.13;102689.94;5032812;28;20037;-63
2022/03/17 11:14:39;;;;;;;8.35;7.85;;;;;;;4.08;28.58;102681.44;5032507;28;20496;-61
2022/03/17 11:17:06;;;;;;;7.60;7.20;;;;;;;2.93;30.72;102694.13;5032444;28;20040;-63
2022/03/17 11:19:34;;;;;;;7.05;6.75;;;;;;;3.41;30.35;102697.97;5030579;28;20068;-63
2022/03/17 11:22:05;;;;;;;8.05;7.65;;;;;;;2.26;31.89;102713.75;5024274;28;20112;-63
2022/03/17 11:24:31;;;;;;;8.30;7.82;;;;;;;2.04;32.32;102705.16;5032451;28;20032;-62
2022/03/17 11:27:42;;;;;;;7.97;7.57;;;;;;;3.26;30.87;102703.03;5032382;28;20540;-63
2022/03/17 11:30:14;;;;;;;7.80;7.40;;;;;;;3.34;30.69;102694.78;5011452;28;20045;-64
2022/03/17 11:32:54;;;;;;;8.43;7.93;;;;;;;2.87;31.69;102697.91;5026933;28;20030;-63
2022/03/17 11:35:29;;;;;;;7.72;7.32;;;;;;;4.08;30.34;102684.91;5031277;28;20034;-64
2022/03/17 11:38:26;;;;;;;7.65;7.25;;;;;;;3.03;30.26;102713.75;5032438;28;20029;-63
2022/03/17 11:41:11;;;;;;;7.53;7.13;;;;;;;2.32;30.83;102702.19;5021254;28;20080;-62
2022/03/17 11:43:46;;;;;;;8.35;7.85;;;;;;;3.85;30.57;102693.13;5030803;28;20032;-63